Terminal Aerodrome Forecast
Issued by NWS Riverton, WY

Home | Current Version | Previous Version | Text Only | Print | Product List | Glossary On
Versions: 1 2 3 4 5 6 7 8 9 10 11 12
000
FTUS45 KRIW 031122
TAFRIW
TAF
KRIW 031122Z 0312/0412 07008KT P6SM FEW120 BKN200
     FM031800 19007KT P6SM VCSH SCT080 BKN150
     FM032200 VRB10G15KT P6SM SHRA VCTS SCT050 OVC080CB
     FM040200 31011KT 6SM SHRA SCT035 OVC050=

USA.gov is the U.S. government's official web portal to all federal, state and local government web resources and services.